createdAt,value
2022-10-22T00:01:14.999Z,17.20
2022-10-22T00:03:45.415Z,17.20
2022-10-22T00:06:15.736Z,17.20
2022-10-22T00:08:48.668Z,17.20
2022-10-22T00:11:20.853Z,17.20
2022-10-22T00:13:51.954Z,17.20
2022-10-22T00:16:22.207Z,17.20
2022-10-22T00:18:52.723Z,17.10
2022-10-22T00:21:22.924Z,17.20
2022-10-22T00:23:56.005Z,17.20
2022-10-22T00:26:26.544Z,17.10
2022-10-22T00:28:57.918Z,17.10
2022-10-22T00:31:28.162Z,17.20
2022-10-22T00:33:58.473Z,17.10
2022-10-22T00:36:28.798Z,17.10
2022-10-22T00:39:01.703Z,17.10
2022-10-22T00:41:31.992Z,17.10
2022-10-22T00:44:04.460Z,17.10
2022-10-22T00:46:34.888Z,17.10
2022-10-22T00:49:07.329Z,17.00
2022-10-22T00:51:38.583Z,17.00
2022-10-22T00:54:12.147Z,17.10
2022-10-22T00:56:42.401Z,17.10
2022-10-22T00:59:14.915Z,17.10
2022-10-22T01:01:45.407Z,17.00
2022-10-22T01:04:15.952Z,17.00
2022-10-22T01:06:47.457Z,17.00
2022-10-22T01:09:30.053Z,17.00
2022-10-22T01:12:06.433Z,17.00
2022-10-22T01:14:44.847Z,17.00
2022-10-22T01:17:22.326Z,16.90
2022-10-22T01:20:07.314Z,17.00
2022-10-22T01:22:42.635Z,16.90
2022-10-22T01:25:20.340Z,17.00
2022-10-22T01:28:01.446Z,16.90
2022-10-22T01:30:34.798Z,16.90
2022-10-22T01:33:09.930Z,16.90
2022-10-22T01:35:44.948Z,16.90
2022-10-22T01:38:18.009Z,16.90
2022-10-22T01:40:49.153Z,16.90
2022-10-22T01:43:19.620Z,16.90
2022-10-22T01:45:54.908Z,16.90
2022-10-22T01:48:37.491Z,16.80
2022-10-22T01:51:29.140Z,16.80
2022-10-22T01:54:05.123Z,16.80
2022-10-22T01:56:50.689Z,16.80
2022-10-22T01:59:27.950Z,16.80
2022-10-22T02:02:05.801Z,16.80
2022-10-22T02:04:44.304Z,16.80
2022-10-22T02:07:18.507Z,16.80
2022-10-22T02:09:49.744Z,16.80
2022-10-22T02:12:21.916Z,16.80
2022-10-22T02:14:53.672Z,16.80
2022-10-22T02:17:29.253Z,16.70
2022-10-22T02:20:01.896Z,16.70
2022-10-22T02:22:32.809Z,16.70
2022-10-22T02:25:03.580Z,16.70
2022-10-22T02:27:40.119Z,16.70
2022-10-22T02:30:13.214Z,16.60
2022-10-22T02:32:50.354Z,16.70
2022-10-22T02:35:24.160Z,16.70
2022-10-22T02:37:55.793Z,16.70
2022-10-22T02:40:27.070Z,16.60
2022-10-22T02:42:57.327Z,16.60
2022-10-22T02:45:27.939Z,16.60
2022-10-22T02:48:01.782Z,16.60
2022-10-22T02:50:31.950Z,16.60
2022-10-22T02:53:02.164Z,16.60
2022-10-22T02:55:32.404Z,16.60
2022-10-22T02:58:02.680Z,16.60
2022-10-22T03:00:33.030Z,16.60
2022-10-22T03:03:05.927Z,16.60
2022-10-22T03:05:36.102Z,16.50
2022-10-22T03:08:06.596Z,16.60
2022-10-22T03:10:36.795Z,16.50
2022-10-22T03:13:07.120Z,16.60
2022-10-22T03:15:37.364Z,16.50
2022-10-22T03:18:10.565Z,16.50
2022-10-22T03:20:40.795Z,16.50
2022-10-22T03:23:11.222Z,16.50
2022-10-22T03:25:45.219Z,16.50
2022-10-22T03:28:18.550Z,16.40
2022-10-22T03:30:48.715Z,16.50
2022-10-22T03:33:21.548Z,16.50
2022-10-22T03:35:51.937Z,16.50
2022-10-22T03:38:22.555Z,16.40
2022-10-22T03:40:53.341Z,16.40
2022-10-22T03:43:23.657Z,16.40
2022-10-22T03:45:53.911Z,16.40
2022-10-22T03:48:26.890Z,16.40
2022-10-22T03:50:57.082Z,16.40
2022-10-22T03:53:27.373Z,16.40
2022-10-22T03:55:57.567Z,16.40
2022-10-22T03:58:28.002Z,16.40
2022-10-22T04:00:58.290Z,16.40
2022-10-22T04:03:31.214Z,16.40
2022-10-22T04:06:04.952Z,16.40
2022-10-22T04:08:35.633Z,16.40
2022-10-22T04:11:06.258Z,16.40
2022-10-22T04:13:36.522Z,16.40
2022-10-22T04:16:14.013Z,16.40
2022-10-22T04:18:48.480Z,16.40
2022-10-22T04:21:20.626Z,16.40
2022-10-22T04:23:52.026Z,16.40
2022-10-22T04:26:23.423Z,16.30
2022-10-22T04:28:54.792Z,16.30
2022-10-22T04:31:26.909Z,16.30
2022-10-22T04:34:01.393Z,16.40
2022-10-22T04:36:32.093Z,16.30
2022-10-22T04:39:03.931Z,16.30
2022-10-22T04:41:36.049Z,16.30
2022-10-22T04:44:10.954Z,16.30
2022-10-22T04:46:44.127Z,16.20
2022-10-22T04:49:17.109Z,16.20
2022-10-22T04:51:47.292Z,16.20
2022-10-22T04:54:17.605Z,16.20
2022-10-22T04:56:47.864Z,16.20
2022-10-22T04:59:18.147Z,16.20
2022-10-22T05:01:48.495Z,16.20
2022-10-22T05:04:22.312Z,16.20
2022-10-22T05:06:52.815Z,16.10
2022-10-22T05:09:23.861Z,16.20
2022-10-22T05:11:55.843Z,16.20
2022-10-22T05:14:27.923Z,16.20
2022-10-22T05:16:58.432Z,16.20
2022-10-22T05:19:33.773Z,16.20
2022-10-22T05:22:06.189Z,16.20
2022-10-22T05:24:37.668Z,16.20
2022-10-22T05:27:08.063Z,16.20
2022-10-22T05:29:38.562Z,16.20
2022-10-22T05:32:08.813Z,16.20
2022-10-22T05:34:41.712Z,16.20
2022-10-22T05:37:12.006Z,16.20
2022-10-22T05:39:42.319Z,16.20
2022-10-22T05:42:12.528Z,16.20
2022-10-22T05:44:42.781Z,16.20
2022-10-22T05:47:12.987Z,16.20
2022-10-22T05:49:45.825Z,16.20
2022-10-22T05:52:16.087Z,16.20
2022-10-22T05:54:46.486Z,16.20
2022-10-22T05:57:16.695Z,16.30
2022-10-22T05:59:46.982Z,16.30
2022-10-22T06:02:17.248Z,16.20
2022-10-22T06:04:51.174Z,16.20
2022-10-22T06:07:21.435Z,16.20
2022-10-22T06:09:54.171Z,16.20
2022-10-22T06:12:24.413Z,16.20
2022-10-22T06:14:54.736Z,16.20
2022-10-22T06:17:24.958Z,16.20
2022-10-22T06:19:57.903Z,16.20
2022-10-22T06:22:28.176Z,16.20
2022-10-22T06:24:58.487Z,16.20
2022-10-22T06:27:28.708Z,16.10
2022-10-22T06:29:59.035Z,16.10
2022-10-22T06:32:29.347Z,16.20
2022-10-22T06:35:02.220Z,16.20
2022-10-22T06:37:32.384Z,16.20
2022-10-22T06:40:02.755Z,16.20
2022-10-22T06:42:32.975Z,16.20
2022-10-22T06:45:03.370Z,16.20
2022-10-22T06:47:33.688Z,16.20
2022-10-22T06:50:07.067Z,16.20
2022-10-22T06:52:37.456Z,16.20
2022-10-22T06:55:08.486Z,16.20
2022-10-22T06:57:39.089Z,16.20
2022-10-22T07:00:11.396Z,16.20
2022-10-22T07:02:41.914Z,16.20
2022-10-22T07:05:15.200Z,16.20
2022-10-22T07:07:45.498Z,16.20
2022-10-22T07:10:16.133Z,16.20
2022-10-22T07:12:46.493Z,16.20
2022-10-22T07:15:16.825Z,16.30
2022-10-22T07:17:47.148Z,16.20
2022-10-22T07:20:21.811Z,16.30
2022-10-22T07:22:52.002Z,16.30
2022-10-22T07:25:22.295Z,16.30
2022-10-22T07:27:52.555Z,16.30
2022-10-22T07:30:22.881Z,16.30
2022-10-22T07:32:53.141Z,16.30
2022-10-22T07:35:26.165Z,16.30
2022-10-22T07:37:56.671Z,16.30
2022-10-22T07:40:27.009Z,16.30
2022-10-22T07:42:57.185Z,16.30
2022-10-22T07:45:27.451Z,16.30
2022-10-22T07:47:57.922Z,16.40
2022-10-22T07:50:30.894Z,16.30
2022-10-22T07:53:01.106Z,16.30
2022-10-22T07:55:31.423Z,16.40
2022-10-22T07:58:01.711Z,16.40
2022-10-22T08:00:32.042Z,16.40
2022-10-22T08:03:02.265Z,16.50
2022-10-22T08:05:35.294Z,16.50
2022-10-22T08:08:05.560Z,16.50
2022-10-22T08:10:36.558Z,16.50
2022-10-22T08:13:07.659Z,16.50
2022-10-22T08:15:38.451Z,16.50
2022-10-22T08:18:09.257Z,16.60
2022-10-22T08:20:42.315Z,16.50
2022-10-22T08:23:13.064Z,16.50
2022-10-22T08:25:43.408Z,16.60
2022-10-22T08:28:14.458Z,16.70
2022-10-22T08:30:48.295Z,16.70
2022-10-22T08:33:18.598Z,16.70
2022-10-22T08:35:54.459Z,16.70
2022-10-22T08:38:24.678Z,16.70
2022-10-22T08:40:57.257Z,16.70
2022-10-22T08:43:46.657Z,16.70
2022-10-22T08:46:27.384Z,16.70
2022-10-22T08:49:00.235Z,16.70
2022-10-22T08:51:40.585Z,16.70
2022-10-22T08:54:25.498Z,16.70
2022-10-22T08:57:08.000Z,16.70
2022-10-22T08:59:43.781Z,16.80
2022-10-22T09:02:28.256Z,16.80
2022-10-22T09:05:11.618Z,16.80
2022-10-22T09:07:50.326Z,16.80
2022-10-22T09:10:22.237Z,16.90
2022-10-22T09:12:52.773Z,16.90
2022-10-22T09:15:23.420Z,16.90
2022-10-22T09:18:16.749Z,16.90
2022-10-22T09:20:53.215Z,17.00
2022-10-22T09:23:34.390Z,17.00
2022-10-22T09:26:04.985Z,16.90
2022-10-22T09:28:35.203Z,17.00
2022-10-22T09:31:05.465Z,17.00
2022-10-22T09:33:36.181Z,17.10
2022-10-22T09:36:08.110Z,17.30
2022-10-22T09:38:44.150Z,17.40
2022-10-22T09:41:14.798Z,17.40
2022-10-22T09:43:45.158Z,17.30
2022-10-22T09:46:19.883Z,17.20
2022-10-22T09:48:54.877Z,17.30
2022-10-22T09:51:26.726Z,17.30
2022-10-22T09:54:04.516Z,17.30
2022-10-22T09:56:38.931Z,17.40
2022-10-22T09:59:16.921Z,17.40
2022-10-22T10:01:47.414Z,17.40
2022-10-22T10:04:19.596Z,17.40
2022-10-22T10:06:56.442Z,17.40
2022-10-22T10:09:30.994Z,17.40
2022-10-22T10:12:10.258Z,17.30
2022-10-22T10:14:48.214Z,17.30
2022-10-22T10:17:26.730Z,17.30
2022-10-22T10:20:07.105Z,17.30
2022-10-22T10:22:49.289Z,17.40
2022-10-22T10:25:35.415Z,17.40
2022-10-22T10:28:18.762Z,17.50
2022-10-22T10:30:56.359Z,17.70
2022-10-22T10:33:36.150Z,17.80
2022-10-22T10:36:15.099Z,17.80
2022-10-22T10:38:55.402Z,17.70
2022-10-22T10:41:39.297Z,17.80
2022-10-22T10:44:30.432Z,17.80
2022-10-22T10:47:13.313Z,17.80
2022-10-22T10:49:46.152Z,17.80
2022-10-22T10:52:23.156Z,17.90
2022-10-22T10:55:03.281Z,17.80
2022-10-22T10:57:48.227Z,17.80
2022-10-22T11:00:20.906Z,17.70
2022-10-22T11:03:22.474Z,17.70
2022-10-22T11:05:58.060Z,17.70
2022-10-22T11:08:33.517Z,17.90
2022-10-22T11:11:09.222Z,18.00
2022-10-22T11:13:45.930Z,18.20
2022-10-22T11:16:23.759Z,18.20
2022-10-22T11:19:02.682Z,18.30
2022-10-22T11:21:39.977Z,18.30
2022-10-22T11:24:17.055Z,18.40
2022-10-22T11:26:49.834Z,18.50
2022-10-22T11:29:29.501Z,18.70
2022-10-22T11:32:04.761Z,18.70
2022-10-22T11:34:40.769Z,18.70
2022-10-22T11:37:13.710Z,18.60
2022-10-22T11:39:46.966Z,18.50
2022-10-22T11:42:23.355Z,18.50
2022-10-22T11:45:07.068Z,18.40
2022-10-22T11:47:44.564Z,18.40
2022-10-22T11:50:26.069Z,18.60
2022-10-22T11:53:05.571Z,18.80
2022-10-22T11:55:46.633Z,19.00
2022-10-22T11:58:42.883Z,19.10
2022-10-22T12:01:29.986Z,19.20
2022-10-22T12:04:19.468Z,19.30
2022-10-22T12:07:01.867Z,19.40
2022-10-22T12:09:34.528Z,19.50
2022-10-22T12:12:16.395Z,19.60
2022-10-22T12:14:59.404Z,19.50
2022-10-22T12:17:34.097Z,19.30
2022-10-22T12:20:10.473Z,19.40
2022-10-22T12:22:41.782Z,19.30
2022-10-22T12:25:22.304Z,19.60
2022-10-22T12:27:55.257Z,19.70
2022-10-22T12:30:27.386Z,19.70
2022-10-22T12:33:02.615Z,19.60
2022-10-22T12:35:35.778Z,19.60
2022-10-22T12:38:10.847Z,19.70
2022-10-22T12:40:47.467Z,19.70
2022-10-22T12:43:21.551Z,19.80
2022-10-22T12:45:53.476Z,19.90
2022-10-22T12:48:29.963Z,19.90
2022-10-22T12:51:04.019Z,19.90
2022-10-22T12:53:37.972Z,19.90
2022-10-22T12:56:13.476Z,19.90
2022-10-22T12:58:47.447Z,19.70
2022-10-22T13:01:20.115Z,19.80
2022-10-22T13:03:54.989Z,19.80
2022-10-22T13:06:29.211Z,19.90
2022-10-22T13:09:10.161Z,19.90
2022-10-22T13:11:43.918Z,20.00
2022-10-22T13:14:24.883Z,20.00
2022-10-22T13:17:09.735Z,20.00
2022-10-22T13:19:45.906Z,19.90
2022-10-22T13:22:41.255Z,20.00
2022-10-22T13:25:27.060Z,19.90
2022-10-22T13:28:00.184Z,20.00
2022-10-22T13:30:33.070Z,20.00
2022-10-22T13:33:05.204Z,20.00
2022-10-22T13:35:40.211Z,19.90
2022-10-22T13:38:18.014Z,20.00
2022-10-22T13:40:48.383Z,19.90
2022-10-22T13:43:20.110Z,19.90
2022-10-22T13:45:51.706Z,19.90
2022-10-22T13:48:24.501Z,20.00
2022-10-22T13:50:57.442Z,20.00
2022-10-22T13:53:29.641Z,20.00
2022-10-22T13:56:00.039Z,20.00
2022-10-22T13:58:30.293Z,20.00
2022-10-22T14:01:03.129Z,19.90
2022-10-22T14:03:37.295Z,20.00
2022-10-22T14:06:15.160Z,19.90
2022-10-22T14:08:46.286Z,19.80
2022-10-22T14:11:16.784Z,19.70
2022-10-22T14:13:47.170Z,19.80
2022-10-22T14:16:21.947Z,20.00
2022-10-22T14:18:52.954Z,20.00
2022-10-22T14:21:26.272Z,20.00
2022-10-22T14:23:56.608Z,20.00
2022-10-22T14:26:30.549Z,20.00
2022-10-22T14:29:11.923Z,20.00
2022-10-22T14:31:44.280Z,19.90
2022-10-22T14:34:17.936Z,19.90
2022-10-22T14:36:50.865Z,19.80
2022-10-22T14:39:21.774Z,19.80
2022-10-22T14:41:52.211Z,19.70
2022-10-22T14:44:22.494Z,19.70
2022-10-22T14:46:56.338Z,19.70
2022-10-22T14:49:26.571Z,19.70
2022-10-22T14:51:59.555Z,19.70
2022-10-22T14:54:29.776Z,19.70
2022-10-22T14:57:00.182Z,19.80
2022-10-22T14:59:30.605Z,19.80
2022-10-22T15:02:01.030Z,19.80
2022-10-22T15:04:31.360Z,19.80
2022-10-22T15:07:04.437Z,19.80
2022-10-22T15:09:34.757Z,19.80
2022-10-22T15:12:05.008Z,19.80
2022-10-22T15:14:35.225Z,19.80
2022-10-22T15:17:05.509Z,19.80
2022-10-22T15:19:35.830Z,19.70
2022-10-22T15:22:09.466Z,19.70
2022-10-22T15:24:39.898Z,19.70
2022-10-22T15:27:10.447Z,19.70
2022-10-22T15:29:40.677Z,19.70
2022-10-22T15:32:12.123Z,19.60
2022-10-22T15:34:43.403Z,19.50
2022-10-22T15:37:19.313Z,19.50
2022-10-22T15:39:49.666Z,19.50
2022-10-22T15:42:20.767Z,19.50
2022-10-22T15:44:51.091Z,19.50
2022-10-22T15:47:21.515Z,19.50
2022-10-22T15:49:51.848Z,19.50
2022-10-22T15:52:25.047Z,19.50
2022-10-22T15:54:55.627Z,19.40
2022-10-22T15:57:26.110Z,19.40
2022-10-22T15:59:56.567Z,19.40
2022-10-22T16:02:27.070Z,19.40
2022-10-22T16:04:58.903Z,19.30
2022-10-22T16:07:33.562Z,19.30
2022-10-22T16:10:03.852Z,19.30
2022-10-22T16:12:36.102Z,19.20
2022-10-22T16:15:07.234Z,19.20
2022-10-22T16:17:38.288Z,19.10
2022-10-22T16:20:09.982Z,19.10
2022-10-22T16:22:43.356Z,19.10
2022-10-22T16:25:14.433Z,19.10
2022-10-22T16:27:44.785Z,19.00
2022-10-22T16:30:16.624Z,19.00
2022-10-22T16:32:47.008Z,18.90
2022-10-22T16:35:17.521Z,18.90
2022-10-22T16:37:50.465Z,18.90
2022-10-22T16:40:20.836Z,18.90
2022-10-22T16:42:51.263Z,18.90
2022-10-22T16:45:21.618Z,18.80
2022-10-22T16:47:52.022Z,18.80
2022-10-22T16:50:22.353Z,18.80
2022-10-22T16:52:55.431Z,18.70
2022-10-22T16:55:25.671Z,18.70
2022-10-22T16:57:56.431Z,18.70
2022-10-22T17:00:26.840Z,18.70
2022-10-22T17:02:57.610Z,18.70
2022-10-22T17:05:28.001Z,18.70
2022-10-22T17:08:01.128Z,18.60
2022-10-22T17:10:31.425Z,18.60
2022-10-22T17:13:01.756Z,18.50
2022-10-22T17:15:32.010Z,18.50
2022-10-22T17:18:04.283Z,18.50
2022-10-22T17:20:34.537Z,18.50
2022-10-22T17:23:07.599Z,18.50
2022-10-22T17:25:41.259Z,18.50
2022-10-22T17:28:11.916Z,18.40
2022-10-22T17:30:42.671Z,18.40
2022-10-22T17:33:13.177Z,18.40
2022-10-22T17:35:44.021Z,18.50
2022-10-22T17:38:17.143Z,18.30
2022-10-22T17:40:47.397Z,18.40
2022-10-22T17:43:17.779Z,18.30
2022-10-22T17:45:48.890Z,18.30
2022-10-22T17:48:19.173Z,18.30
2022-10-22T17:50:51.005Z,18.30
2022-10-22T17:53:25.835Z,18.20
2022-10-22T17:56:03.569Z,18.20
2022-10-22T17:58:33.974Z,18.20
2022-10-22T18:01:04.357Z,18.20
2022-10-22T18:03:35.645Z,18.20
2022-10-22T18:06:10.746Z,18.10
2022-10-22T18:08:44.257Z,18.10
2022-10-22T18:11:16.842Z,18.10
2022-10-22T18:13:47.773Z,18.10
2022-10-22T18:16:18.085Z,18.10
2022-10-22T18:18:49.345Z,18.10
2022-10-22T18:21:20.541Z,18.10
2022-10-22T18:23:53.724Z,18.10
2022-10-22T18:26:26.862Z,18.10
2022-10-22T18:28:57.698Z,18.00
2022-10-22T18:31:30.432Z,18.00
2022-10-22T18:34:01.046Z,18.00
2022-10-22T18:36:31.582Z,18.00
2022-10-22T18:39:05.553Z,18.00
2022-10-22T18:41:37.012Z,18.00
2022-10-22T18:44:09.858Z,17.90
2022-10-22T18:46:40.917Z,17.90
2022-10-22T18:49:11.893Z,17.90
2022-10-22T18:51:42.139Z,17.90
2022-10-22T18:54:23.106Z,17.90
2022-10-22T18:56:55.508Z,17.90
2022-10-22T18:59:29.570Z,17.90
2022-10-22T19:02:00.655Z,17.90
2022-10-22T19:04:36.861Z,17.80
2022-10-22T19:10:01.557Z,17.80
2022-10-22T19:12:31.836Z,17.80
2022-10-22T19:15:02.066Z,17.80
2022-10-22T19:17:33.355Z,17.80
2022-10-22T19:20:03.694Z,17.80
2022-10-22T19:22:35.185Z,17.80
2022-10-22T19:25:11.908Z,17.80
2022-10-22T19:27:42.766Z,17.80
2022-10-22T19:30:14.575Z,17.80
2022-10-22T19:32:45.154Z,17.70
2022-10-22T19:35:15.639Z,17.80
2022-10-22T19:37:48.346Z,17.70
2022-10-22T19:43:18.193Z,17.70
2022-10-22T19:45:49.436Z,17.70
2022-10-22T19:48:19.847Z,17.70
2022-10-22T19:50:51.176Z,17.70
2022-10-22T19:53:21.509Z,17.60
2022-10-22T19:55:54.466Z,17.60
2022-10-22T19:58:24.822Z,17.60
2022-10-22T20:00:55.694Z,17.60
2022-10-22T20:03:26.033Z,17.60
2022-10-22T20:05:56.420Z,17.60
2022-10-22T20:08:26.899Z,17.60
2022-10-22T20:10:59.864Z,17.60
2022-10-22T20:13:30.226Z,17.60
2022-10-22T20:16:00.676Z,17.50
2022-10-22T20:18:32.817Z,17.50
2022-10-22T20:21:06.247Z,17.50
2022-10-22T20:23:37.092Z,17.50
2022-10-22T20:26:10.958Z,17.50
2022-10-22T20:28:41.532Z,17.50
2022-10-22T20:31:12.938Z,17.50
2022-10-22T20:33:43.303Z,17.50
2022-10-22T20:36:20.092Z,17.50
2022-10-22T20:38:50.823Z,17.50
2022-10-22T20:41:25.881Z,17.40
2022-10-22T20:43:56.319Z,17.40
2022-10-22T20:46:29.323Z,17.40
2022-10-22T20:49:03.185Z,17.40
2022-10-22T20:51:34.448Z,17.40
2022-10-22T20:54:04.799Z,17.30
2022-10-22T20:56:39.089Z,17.30
2022-10-22T20:59:11.216Z,17.40
2022-10-22T21:01:43.937Z,17.40
2022-10-22T21:04:14.482Z,17.40
2022-10-22T21:06:44.712Z,17.30
2022-10-22T21:09:17.030Z,17.40
2022-10-22T21:11:50.302Z,17.30
2022-10-22T21:14:23.239Z,17.30
2022-10-22T21:16:54.165Z,17.30
2022-10-22T21:19:25.387Z,17.30
2022-10-22T21:21:56.193Z,17.20
2022-10-22T21:24:27.030Z,17.30
2022-10-22T21:27:00.298Z,17.30
2022-10-22T21:29:30.829Z,17.20
2022-10-22T21:32:01.060Z,17.20
2022-10-22T21:34:35.477Z,17.20
2022-10-22T21:37:09.030Z,17.20
2022-10-22T21:39:41.973Z,17.20
2022-10-22T21:42:17.921Z,17.20
2022-10-22T21:44:48.097Z,17.20
2022-10-22T21:47:18.338Z,17.20
2022-10-22T21:49:48.560Z,17.20
2022-10-22T21:52:18.751Z,17.20
2022-10-22T21:54:48.978Z,17.20
2022-10-22T21:57:21.857Z,17.10
2022-10-22T21:59:52.024Z,17.20
2022-10-22T22:02:22.248Z,17.10
2022-10-22T22:04:54.992Z,17.10
2022-10-22T22:07:25.415Z,17.10
2022-10-22T22:09:55.754Z,17.10
2022-10-22T22:12:28.781Z,17.10
2022-10-22T22:14:59.051Z,17.00
2022-10-22T22:17:32.450Z,17.10
2022-10-22T22:20:03.061Z,17.00
2022-10-22T22:22:33.373Z,17.00
2022-10-22T22:25:04.078Z,17.00
2022-10-22T22:27:37.344Z,17.00
2022-10-22T22:30:08.937Z,17.00
2022-10-22T22:32:39.158Z,17.00
2022-10-22T22:35:09.988Z,16.90
2022-10-22T22:37:40.676Z,17.00
2022-10-22T22:40:12.325Z,16.90
2022-10-22T22:42:45.196Z,16.90
2022-10-22T22:45:15.513Z,16.90
2022-10-22T22:47:45.764Z,16.90
2022-10-22T22:50:16.161Z,16.90
2022-10-22T22:52:46.419Z,16.90
2022-10-22T22:55:16.662Z,16.90
2022-10-22T22:57:49.506Z,16.80
2022-10-22T23:00:20.365Z,16.80
2022-10-22T23:02:50.603Z,16.80
2022-10-22T23:05:20.990Z,16.80
2022-10-22T23:07:51.202Z,16.80
2022-10-22T23:10:21.494Z,16.80
2022-10-22T23:12:54.336Z,16.70
2022-10-22T23:15:24.617Z,16.70
2022-10-22T23:17:54.915Z,16.70
2022-10-22T23:20:25.164Z,16.70
2022-10-22T23:22:55.394Z,16.60
2022-10-22T23:25:25.612Z,16.60
2022-10-22T23:27:58.495Z,16.60
2022-10-22T23:30:28.711Z,16.60
2022-10-22T23:32:59.013Z,16.60
2022-10-22T23:35:30.339Z,16.60
2022-10-22T23:38:00.765Z,16.60
2022-10-22T23:40:30.964Z,16.60
2022-10-22T23:43:03.777Z,16.60
2022-10-22T23:45:36.898Z,16.60
2022-10-22T23:48:07.445Z,16.60
2022-10-22T23:50:39.832Z,16.60
2022-10-22T23:53:10.291Z,16.60
2022-10-22T23:55:40.620Z,16.60
2022-10-22T23:58:14.245Z,16.60
